Airfield :
LOGIN :

Register | Disclaimer

   EN    FR    IT 

 










Legend :    VFR   Marginal VFR   IFR   Intensive IFR   Very Intensive IFR
Visi :
Ceiling :
>= 8 km
>= 3000ft
5 to 8 km
1000 to 3000 ft
1500m to 5 km
500 to 1000 ft
800 to 1500m
200 to 500 ft
< 800m
< 200 ft
Symbols :   Thunderstorms  Fog  Heavy snow  Heavy precipitations  Wind > 20 kt
SIGMETs :     Misc.  Thunderstorms  Icing  Turbulence  Mountain Waves  Volcanic Ashes






- Airport Elevation : 485 ft
- IATA code : QSA


LELL - Sabadell

CURRENT METAR :
  • 171100Z 12012KT 060V160 9999 FEW040 16/07 Q1015

EXPIRED METARs :
  • 171030Z 19003KT 9999 FEW040 18/05 Q1015
  • 171000Z 19007KT 150V270 9999 SCT040 16/04 Q1015
  • 170930Z 24005G15KT 9999 SCT040 16/04 Q1015
  • 170900Z 25005KT 190V320 9999 SCT040 15/04 Q1015
  • 170800Z 26005KT 220V300 9999 SCT040 13/05 Q1015
  • 170730Z 29003KT 9999 SCT040 12/04 Q1015
  • 170700Z 24003KT 9999 BKN040 11/04 Q1015
  • 170630Z VRB02KT 9999 OVC040 11/05 Q1015

TAF TAF LELL
Valid from the 17 at 09:00 until the 18 at 09:00 UTC


170800Z 1709/1809 25006KT 9999 BKN025 TX18/1712Z TN06/1806Z
PROB30
TEMPO 1709/1722 4000 DZRA BKN014
BECMG 1709/1711 18011KT
BECMG 1720/1722 VRB04KT



MET'MAP, your aeronautical weather chart ! - Copyright ORBIFLY December 2007 - Disclaimer

ORBIFLY MET'MAP TEAM :

Programming & Development : Alexandra Zaïnal
Original concept : Baudouin d'Aumeries
Technical & hardware support : Manuel Goepfert
Assistance : Marc-Olivier Méhu




SOURCES & CREDITS :

   NOAA